sensor_id;sensor_type;location;lat;lon;timestamp;P1;durP1;ratioP1;P2;durP2;ratioP2
2408;SDS011;8463;48.094;7.970;2023-06-26T00:01:49;6.53;;;5.90;;
2408;SDS011;8463;48.094;7.970;2023-06-26T00:04:15;6.40;;;4.70;;
2408;SDS011;8463;48.094;7.970;2023-06-26T00:06:40;5.77;;;5.27;;
2408;SDS011;8463;48.094;7.970;2023-06-26T00:09:06;6.27;;;5.13;;
2408;SDS011;8463;48.094;7.970;2023-06-26T00:11:32;5.60;;;5.10;;
2408;SDS011;8463;48.094;7.970;2023-06-26T00:13:59;5.30;;;4.90;;
2408;SDS011;8463;48.094;7.970;2023-06-26T00:16:31;6.40;;;5.80;;
2408;SDS011;8463;48.094;7.970;2023-06-26T00:18:57;5.50;;;5.00;;
2408;SDS011;8463;48.094;7.970;2023-06-26T00:21:24;5.67;;;5.17;;
2408;SDS011;8463;48.094;7.970;2023-06-26T00:23:51;6.23;;;5.13;;
2408;SDS011;8463;48.094;7.970;2023-06-26T00:26:17;7.17;;;5.40;;
2408;SDS011;8463;48.094;7.970;2023-06-26T00:28:42;4.43;;;4.03;;
2408;SDS011;8463;48.094;7.970;2023-06-26T00:31:08;5.10;;;4.70;;
2408;SDS011;8463;48.094;7.970;2023-06-26T00:33:34;6.37;;;5.60;;
2408;SDS011;8463;48.094;7.970;2023-06-26T00:36:05;5.20;;;4.80;;
2408;SDS011;8463;48.094;7.970;2023-06-26T00:38:31;5.37;;;4.70;;
2408;SDS011;8463;48.094;7.970;2023-06-26T00:40:56;5.40;;;4.90;;
2408;SDS011;8463;48.094;7.970;2023-06-26T00:43:22;6.13;;;5.73;;
2408;SDS011;8463;48.094;7.970;2023-06-26T00:45:54;5.87;;;5.37;;
2408;SDS011;8463;48.094;7.970;2023-06-26T00:48:20;5.30;;;4.90;;
2408;SDS011;8463;48.094;7.970;2023-06-26T00:50:46;5.47;;;5.00;;
2408;SDS011;8463;48.094;7.970;2023-06-26T00:53:12;5.50;;;5.00;;
2408;SDS011;8463;48.094;7.970;2023-06-26T00:55:38;5.20;;;4.70;;
2408;SDS011;8463;48.094;7.970;2023-06-26T00:58:04;5.63;;;5.13;;
2408;SDS011;8463;48.094;7.970;2023-06-26T01:00:33;6.33;;;5.57;;
2408;SDS011;8463;48.094;7.970;2023-06-26T01:02:59;5.07;;;4.57;;
2408;SDS011;8463;48.094;7.970;2023-06-26T01:05:25;5.73;;;5.10;;
2408;SDS011;8463;48.094;7.970;2023-06-26T01:07:51;5.60;;;5.20;;
2408;SDS011;8463;48.094;7.970;2023-06-26T01:10:17;5.23;;;4.73;;
2408;SDS011;8463;48.094;7.970;2023-06-26T01:12:44;6.10;;;5.50;;
2408;SDS011;8463;48.094;7.970;2023-06-26T01:15:10;5.63;;;4.97;;
2408;SDS011;8463;48.094;7.970;2023-06-26T01:17:36;5.57;;;5.07;;
2408;SDS011;8463;48.094;7.970;2023-06-26T01:20:04;5.90;;;5.40;;
2408;SDS011;8463;48.094;7.970;2023-06-26T01:28:12;5.43;;;4.93;;
2408;SDS011;8463;48.094;7.970;2023-06-26T01:30:41;6.03;;;4.83;;
2408;SDS011;8463;48.094;7.970;2023-06-26T01:33:10;4.87;;;4.43;;
2408;SDS011;8463;48.094;7.970;2023-06-26T01:35:37;8.73;;;4.80;;
2408;SDS011;8463;48.094;7.970;2023-06-26T01:38:15;5.40;;;4.90;;
2408;SDS011;8463;48.094;7.970;2023-06-26T01:40:42;6.23;;;5.30;;
2408;SDS011;8463;48.094;7.970;2023-06-26T01:43:11;5.67;;;5.17;;
2408;SDS011;8463;48.094;7.970;2023-06-26T01:45:58;5.80;;;5.30;;
2408;SDS011;8463;48.094;7.970;2023-06-26T01:48:32;6.30;;;5.70;;
2408;SDS011;8463;48.094;7.970;2023-06-26T01:51:07;5.47;;;4.97;;
2408;SDS011;8463;48.094;7.970;2023-06-26T01:53:36;5.30;;;4.90;;
2408;SDS011;8463;48.094;7.970;2023-06-26T01:56:07;6.00;;;5.50;;
2408;SDS011;8463;48.094;7.970;2023-06-26T01:58:41;4.77;;;4.27;;
2408;SDS011;8463;48.094;7.970;2023-06-26T02:01:10;5.53;;;5.03;;
2408;SDS011;8463;48.094;7.970;2023-06-26T02:03:36;5.53;;;5.00;;
2408;SDS011;8463;48.094;7.970;2023-06-26T02:06:02;5.37;;;4.97;;
2408;SDS011;8463;48.094;7.970;2023-06-26T02:08:28;5.87;;;5.30;;
2408;SDS011;8463;48.094;7.970;2023-06-26T02:10:54;5.10;;;4.60;;
2408;SDS011;8463;48.094;7.970;2023-06-26T02:13:19;6.40;;;5.07;;
2408;SDS011;8463;48.094;7.970;2023-06-26T02:15:45;6.33;;;5.73;;
2408;SDS011;8463;48.094;7.970;2023-06-26T02:18:10;5.93;;;5.27;;
2408;SDS011;8463;48.094;7.970;2023-06-26T02:20:36;6.07;;;5.57;;
2408;SDS011;8463;48.094;7.970;2023-06-26T02:23:02;5.87;;;5.27;;
2408;SDS011;8463;48.094;7.970;2023-06-26T02:25:30;5.80;;;5.30;;
2408;SDS011;8463;48.094;7.970;2023-06-26T02:27:55;6.27;;;4.97;;
2408;SDS011;8463;48.094;7.970;2023-06-26T02:30:22;6.30;;;5.33;;
2408;SDS011;8463;48.094;7.970;2023-06-26T02:32:47;5.60;;;5.10;;
2408;SDS011;8463;48.094;7.970;2023-06-26T02:35:13;7.00;;;5.50;;
2408;SDS011;8463;48.094;7.970;2023-06-26T02:37:46;8.20;;;5.17;;
2408;SDS011;8463;48.094;7.970;2023-06-26T02:40:12;6.70;;;5.53;;
2408;SDS011;8463;48.094;7.970;2023-06-26T02:42:37;6.23;;;5.63;;
2408;SDS011;8463;48.094;7.970;2023-06-26T02:45:03;6.27;;;5.73;;
2408;SDS011;8463;48.094;7.970;2023-06-26T02:47:29;5.80;;;5.30;;
2408;SDS011;8463;48.094;7.970;2023-06-26T02:49:56;6.30;;;5.70;;
2408;SDS011;8463;48.094;7.970;2023-06-26T02:52:22;5.77;;;5.10;;
2408;SDS011;8463;48.094;7.970;2023-06-26T02:54:48;5.67;;;5.20;;
2408;SDS011;8463;48.094;7.970;2023-06-26T02:57:14;4.77;;;4.37;;
2408;SDS011;8463;48.094;7.970;2023-06-26T02:59:42;6.43;;;5.83;;
2408;SDS011;8463;48.094;7.970;2023-06-26T03:02:07;5.60;;;5.10;;
2408;SDS011;8463;48.094;7.970;2023-06-26T03:04:33;5.67;;;5.17;;
2408;SDS011;8463;48.094;7.970;2023-06-26T03:07:01;5.83;;;5.33;;
2408;SDS011;8463;48.094;7.970;2023-06-26T03:09:27;6.47;;;5.90;;
2408;SDS011;8463;48.094;7.970;2023-06-26T03:11:53;5.93;;;5.33;;
2408;SDS011;8463;48.094;7.970;2023-06-26T03:14:20;5.90;;;5.33;;
2408;SDS011;8463;48.094;7.970;2023-06-26T03:16:46;7.50;;;6.30;;
2408;SDS011;8463;48.094;7.970;2023-06-26T03:19:13;6.23;;;5.73;;
2408;SDS011;8463;48.094;7.970;2023-06-26T03:21:39;5.83;;;4.93;;
2408;SDS011;8463;48.094;7.970;2023-06-26T03:24:04;6.87;;;5.33;;
2408;SDS011;8463;48.094;7.970;2023-06-26T03:26:30;5.87;;;5.37;;
2408;SDS011;8463;48.094;7.970;2023-06-26T03:28:57;6.33;;;5.73;;
2408;SDS011;8463;48.094;7.970;2023-06-26T03:31:25;5.07;;;4.67;;
2408;SDS011;8463;48.094;7.970;2023-06-26T03:33:51;5.27;;;4.77;;
2408;SDS011;8463;48.094;7.970;2023-06-26T03:36:16;6.73;;;5.60;;
2408;SDS011;8463;48.094;7.970;2023-06-26T03:38:42;6.07;;;5.47;;
2408;SDS011;8463;48.094;7.970;2023-06-26T03:41:08;5.40;;;4.90;;
2408;SDS011;8463;48.094;7.970;2023-06-26T03:43:33;7.03;;;5.40;;
2408;SDS011;8463;48.094;7.970;2023-06-26T03:45:59;5.50;;;5.10;;
2408;SDS011;8463;48.094;7.970;2023-06-26T03:48:24;5.97;;;5.47;;
2408;SDS011;8463;48.094;7.970;2023-06-26T03:50:56;6.17;;;5.60;;
2408;SDS011;8463;48.094;7.970;2023-06-26T03:53:22;5.47;;;4.90;;
2408;SDS011;8463;48.094;7.970;2023-06-26T03:55:48;5.40;;;4.90;;
2408;SDS011;8463;48.094;7.970;2023-06-26T03:58:14;4.87;;;4.47;;
2408;SDS011;8463;48.094;7.970;2023-06-26T04:00:43;6.17;;;5.57;;
2408;SDS011;8463;48.094;7.970;2023-06-26T04:03:12;5.47;;;4.97;;
2408;SDS011;8463;48.094;7.970;2023-06-26T04:05:38;5.33;;;4.83;;
2408;SDS011;8463;48.094;7.970;2023-06-26T04:08:04;5.93;;;5.33;;
2408;SDS011;8463;48.094;7.970;2023-06-26T04:10:30;6.03;;;5.50;;
2408;SDS011;8463;48.094;7.970;2023-06-26T04:12:55;6.10;;;5.50;;
2408;SDS011;8463;48.094;7.970;2023-06-26T04:15:21;6.00;;;5.50;;
2408;SDS011;8463;48.094;7.970;2023-06-26T04:17:47;7.27;;;6.53;;
2408;SDS011;8463;48.094;7.970;2023-06-26T04:20:16;6.40;;;5.90;;
2408;SDS011;8463;48.094;7.970;2023-06-26T04:22:42;6.90;;;6.17;;
2408;SDS011;8463;48.094;7.970;2023-06-26T04:25:08;6.03;;;5.43;;
2408;SDS011;8463;48.094;7.970;2023-06-26T04:27:33;5.20;;;4.70;;
2408;SDS011;8463;48.094;7.970;2023-06-26T04:29:59;6.10;;;5.47;;
2408;SDS011;8463;48.094;7.970;2023-06-26T04:32:25;5.77;;;5.17;;
2408;SDS011;8463;48.094;7.970;2023-06-26T04:34:50;6.97;;;5.87;;
2408;SDS011;8463;48.094;7.970;2023-06-26T04:37:16;5.80;;;5.30;;
2408;SDS011;8463;48.094;7.970;2023-06-26T04:39:42;6.20;;;5.60;;
2408;SDS011;8463;48.094;7.970;2023-06-26T04:42:07;6.50;;;5.90;;
2408;SDS011;8463;48.094;7.970;2023-06-26T04:44:35;5.83;;;5.33;;
2408;SDS011;8463;48.094;7.970;2023-06-26T04:47:02;5.87;;;5.30;;
2408;SDS011;8463;48.094;7.970;2023-06-26T04:49:28;6.37;;;5.77;;
2408;SDS011;8463;48.094;7.970;2023-06-26T04:51:55;7.00;;;5.73;;
2408;SDS011;8463;48.094;7.970;2023-06-26T04:54:21;5.40;;;5.00;;
2408;SDS011;8463;48.094;7.970;2023-06-26T04:56:48;5.90;;;5.47;;
2408;SDS011;8463;48.094;7.970;2023-06-26T04:59:14;7.00;;;6.40;;
2408;SDS011;8463;48.094;7.970;2023-06-26T05:01:40;8.37;;;5.80;;
2408;SDS011;8463;48.094;7.970;2023-06-26T05:04:09;5.77;;;5.27;;
2408;SDS011;8463;48.094;7.970;2023-06-26T05:06:37;6.07;;;5.57;;
2408;SDS011;8463;48.094;7.970;2023-06-26T05:09:02;5.20;;;4.80;;
2408;SDS011;8463;48.094;7.970;2023-06-26T05:11:28;6.57;;;5.73;;
2408;SDS011;8463;48.094;7.970;2023-06-26T05:13:54;5.40;;;4.90;;
2408;SDS011;8463;48.094;7.970;2023-06-26T05:16:21;6.80;;;6.20;;
2408;SDS011;8463;48.094;7.970;2023-06-26T05:18:46;5.97;;;5.40;;
2408;SDS011;8463;48.094;7.970;2023-06-26T05:21:12;6.60;;;5.90;;
2408;SDS011;8463;48.094;7.970;2023-06-26T05:23:38;5.87;;;5.10;;
2408;SDS011;8463;48.094;7.970;2023-06-26T05:26:04;5.27;;;4.50;;
2408;SDS011;8463;48.094;7.970;2023-06-26T05:28:30;5.50;;;5.00;;
2408;SDS011;8463;48.094;7.970;2023-06-26T05:30:57;6.10;;;5.50;;
2408;SDS011;8463;48.094;7.970;2023-06-26T05:33:32;6.03;;;5.53;;
2408;SDS011;8463;48.094;7.970;2023-06-26T05:36:01;5.50;;;5.00;;
2408;SDS011;8463;48.094;7.970;2023-06-26T05:38:31;6.50;;;5.90;;
2408;SDS011;8463;48.094;7.970;2023-06-26T05:40:59;5.67;;;5.17;;
2408;SDS011;8463;48.094;7.970;2023-06-26T05:43:25;6.93;;;6.33;;
2408;SDS011;8463;48.094;7.970;2023-06-26T05:45:50;6.00;;;5.43;;
2408;SDS011;8463;48.094;7.970;2023-06-26T05:48:16;5.90;;;5.40;;
2408;SDS011;8463;48.094;7.970;2023-06-26T05:50:45;7.20;;;6.43;;
2408;SDS011;8463;48.094;7.970;2023-06-26T05:53:11;6.20;;;5.50;;
2408;SDS011;8463;48.094;7.970;2023-06-26T05:55:37;6.17;;;5.57;;
2408;SDS011;8463;48.094;7.970;2023-06-26T05:58:03;5.90;;;5.40;;
2408;SDS011;8463;48.094;7.970;2023-06-26T06:00:29;7.73;;;6.93;;
2408;SDS011;8463;48.094;7.970;2023-06-26T06:02:58;7.10;;;6.50;;
2408;SDS011;8463;48.094;7.970;2023-06-26T06:05:23;6.90;;;6.20;;
2408;SDS011;8463;48.094;7.970;2023-06-26T06:07:49;6.40;;;5.80;;
2408;SDS011;8463;48.094;7.970;2023-06-26T06:10:15;5.77;;;5.27;;
2408;SDS011;8463;48.094;7.970;2023-06-26T06:12:41;6.63;;;6.03;;
2408;SDS011;8463;48.094;7.970;2023-06-26T06:15:07;5.83;;;5.33;;
2408;SDS011;8463;48.094;7.970;2023-06-26T06:17:33;5.60;;;5.10;;
2408;SDS011;8463;48.094;7.970;2023-06-26T06:20:00;6.73;;;6.13;;
2408;SDS011;8463;48.094;7.970;2023-06-26T06:22:26;6.67;;;6.17;;
2408;SDS011;8463;48.094;7.970;2023-06-26T06:24:52;7.30;;;6.07;;
2408;SDS011;8463;48.094;7.970;2023-06-26T06:27:23;6.60;;;6.07;;
2408;SDS011;8463;48.094;7.970;2023-06-26T06:29:49;7.50;;;6.17;;
2408;SDS011;8463;48.094;7.970;2023-06-26T06:32:14;6.83;;;5.80;;
2408;SDS011;8463;48.094;7.970;2023-06-26T06:34:40;6.60;;;6.10;;
2408;SDS011;8463;48.094;7.970;2023-06-26T06:37:06;6.27;;;5.73;;
2408;SDS011;8463;48.094;7.970;2023-06-26T06:39:31;5.97;;;5.47;;
2408;SDS011;8463;48.094;7.970;2023-06-26T06:41:57;6.90;;;6.30;;
2408;SDS011;8463;48.094;7.970;2023-06-26T06:44:24;6.60;;;6.03;;
2408;SDS011;8463;48.094;7.970;2023-06-26T06:46:50;6.47;;;5.97;;
2408;SDS011;8463;48.094;7.970;2023-06-26T06:49:17;5.60;;;5.13;;
2408;SDS011;8463;48.094;7.970;2023-06-26T06:51:42;6.80;;;6.20;;
2408;SDS011;8463;48.094;7.970;2023-06-26T06:54:10;6.97;;;6.47;;
2408;SDS011;8463;48.094;7.970;2023-06-26T06:56:35;6.60;;;5.90;;
2408;SDS011;8463;48.094;7.970;2023-06-26T06:59:01;6.20;;;5.60;;
2408;SDS011;8463;48.094;7.970;2023-06-26T07:01:27;5.80;;;5.30;;
2408;SDS011;8463;48.094;7.970;2023-06-26T07:03:52;7.50;;;6.90;;
2408;SDS011;8463;48.094;7.970;2023-06-26T07:06:18;6.53;;;6.03;;
2408;SDS011;8463;48.094;7.970;2023-06-26T07:08:44;6.10;;;5.60;;
2408;SDS011;8463;48.094;7.970;2023-06-26T07:11:10;6.03;;;5.43;;
2408;SDS011;8463;48.094;7.970;2023-06-26T07:13:35;6.70;;;6.00;;
2408;SDS011;8463;48.094;7.970;2023-06-26T07:16:04;11.50;;;6.23;;
2408;SDS011;8463;48.094;7.970;2023-06-26T07:18:30;6.40;;;5.80;;
2408;SDS011;8463;48.094;7.970;2023-06-26T07:20:56;9.07;;;6.67;;
2408;SDS011;8463;48.094;7.970;2023-06-26T07:23:21;5.90;;;5.40;;
2408;SDS011;8463;48.094;7.970;2023-06-26T07:25:47;7.07;;;6.40;;
2408;SDS011;8463;48.094;7.970;2023-06-26T07:28:13;6.40;;;5.80;;
2408;SDS011;8463;48.094;7.970;2023-06-26T07:30:38;6.43;;;5.83;;
2408;SDS011;8463;48.094;7.970;2023-06-26T07:33:04;6.93;;;6.30;;
2408;SDS011;8463;48.094;7.970;2023-06-26T07:35:30;5.70;;;5.20;;
2408;SDS011;8463;48.094;7.970;2023-06-26T07:37:56;7.80;;;5.80;;
2408;SDS011;8463;48.094;7.970;2023-06-26T07:40:22;6.47;;;5.90;;
2408;SDS011;8463;48.094;7.970;2023-06-26T07:42:50;6.30;;;5.60;;
2408;SDS011;8463;48.094;7.970;2023-06-26T07:45:19;6.33;;;5.83;;
2408;SDS011;8463;48.094;7.970;2023-06-26T07:47:45;5.87;;;5.27;;
2408;SDS011;8463;48.094;7.970;2023-06-26T07:50:11;6.60;;;5.17;;
2408;SDS011;8463;48.094;7.970;2023-06-26T07:52:37;6.70;;;5.93;;
2408;SDS011;8463;48.094;7.970;2023-06-26T07:55:02;8.03;;;5.43;;
2408;SDS011;8463;48.094;7.970;2023-06-26T07:57:29;10.90;;;5.97;;
2408;SDS011;8463;48.094;7.970;2023-06-26T07:59:54;6.73;;;6.13;;
2408;SDS011;8463;48.094;7.970;2023-06-26T08:02:20;6.33;;;5.47;;
2408;SDS011;8463;48.094;7.970;2023-06-26T08:04:46;6.83;;;6.20;;
2408;SDS011;8463;48.094;7.970;2023-06-26T08:07:12;6.23;;;5.53;;
2408;SDS011;8463;48.094;7.970;2023-06-26T08:09:39;5.97;;;5.50;;
2408;SDS011;8463;48.094;7.970;2023-06-26T08:12:04;7.17;;;5.30;;
2408;SDS011;8463;48.094;7.970;2023-06-26T08:14:30;7.20;;;4.93;;
2408;SDS011;8463;48.094;7.970;2023-06-26T08:16:56;6.90;;;6.20;;
2408;SDS011;8463;48.094;7.970;2023-06-26T08:19:22;5.70;;;5.20;;
2408;SDS011;8463;48.094;7.970;2023-06-26T08:21:48;5.97;;;5.47;;
2408;SDS011;8463;48.094;7.970;2023-06-26T08:24:13;6.77;;;6.17;;
2408;SDS011;8463;48.094;7.970;2023-06-26T08:26:44;5.90;;;5.40;;
2408;SDS011;8463;48.094;7.970;2023-06-26T08:29:11;6.40;;;5.70;;
2408;SDS011;8463;48.094;7.970;2023-06-26T08:31:37;5.90;;;5.50;;
2408;SDS011;8463;48.094;7.970;2023-06-26T08:34:03;5.60;;;5.00;;
2408;SDS011;8463;48.094;7.970;2023-06-26T08:36:30;6.17;;;5.67;;
2408;SDS011;8463;48.094;7.970;2023-06-26T08:38:56;6.37;;;5.77;;
2408;SDS011;8463;48.094;7.970;2023-06-26T08:41:21;6.00;;;5.50;;
2408;SDS011;8463;48.094;7.970;2023-06-26T08:43:47;5.73;;;5.27;;
2408;SDS011;8463;48.094;7.970;2023-06-26T08:46:15;7.13;;;5.00;;
2408;SDS011;8463;48.094;7.970;2023-06-26T08:48:41;6.70;;;6.10;;
2408;SDS011;8463;48.094;7.970;2023-06-26T08:51:13;6.70;;;6.00;;
2408;SDS011;8463;48.094;7.970;2023-06-26T08:56:24;6.00;;;5.50;;
2408;SDS011;8463;48.094;7.970;2023-06-26T08:59:00;6.47;;;5.87;;
2408;SDS011;8463;48.094;7.970;2023-06-26T09:01:26;6.77;;;6.17;;
2408;SDS011;8463;48.094;7.970;2023-06-26T09:03:53;6.80;;;6.03;;
2408;SDS011;8463;48.094;7.970;2023-06-26T09:06:19;7.03;;;6.33;;
2408;SDS011;8463;48.094;7.970;2023-06-26T09:08:45;6.23;;;5.77;;
2408;SDS011;8463;48.094;7.970;2023-06-26T09:11:11;6.80;;;5.47;;
2408;SDS011;8463;48.094;7.970;2023-06-26T09:13:37;7.43;;;6.73;;
2408;SDS011;8463;48.094;7.970;2023-06-26T09:16:06;6.40;;;5.80;;
2408;SDS011;8463;48.094;7.970;2023-06-26T09:18:33;6.57;;;5.97;;
2408;SDS011;8463;48.094;7.970;2023-06-26T09:20:59;7.57;;;6.43;;
2408;SDS011;8463;48.094;7.970;2023-06-26T09:23:27;7.10;;;6.40;;
2408;SDS011;8463;48.094;7.970;2023-06-26T09:25:53;6.00;;;5.30;;
2408;SDS011;8463;48.094;7.970;2023-06-26T09:28:19;6.73;;;6.13;;
2408;SDS011;8463;48.094;7.970;2023-06-26T09:30:45;6.90;;;6.30;;
2408;SDS011;8463;48.094;7.970;2023-06-26T09:33:17;7.23;;;6.07;;
2408;SDS011;8463;48.094;7.970;2023-06-26T09:35:50;7.40;;;6.80;;
2408;SDS011;8463;48.094;7.970;2023-06-26T09:38:16;7.00;;;6.40;;
2408;SDS011;8463;48.094;7.970;2023-06-26T09:40:42;7.73;;;6.93;;
2408;SDS011;8463;48.094;7.970;2023-06-26T09:43:09;8.60;;;7.10;;
2408;SDS011;8463;48.094;7.970;2023-06-26T09:45:39;17.70;;;7.77;;
2408;SDS011;8463;48.094;7.970;2023-06-26T09:48:05;7.60;;;6.63;;
2408;SDS011;8463;48.094;7.970;2023-06-26T09:50:38;6.33;;;5.73;;
2408;SDS011;8463;48.094;7.970;2023-06-26T09:53:07;7.37;;;6.67;;
2408;SDS011;8463;48.094;7.970;2023-06-26T09:55:38;9.77;;;7.07;;
2408;SDS011;8463;48.094;7.970;2023-06-26T09:58:10;7.20;;;6.50;;
2408;SDS011;8463;48.094;7.970;2023-06-26T10:00:39;7.60;;;6.50;;
2408;SDS011;8463;48.094;7.970;2023-06-26T10:03:09;7.13;;;6.53;;
2408;SDS011;8463;48.094;7.970;2023-06-26T10:05:36;6.70;;;5.90;;
2408;SDS011;8463;48.094;7.970;2023-06-26T10:08:02;6.40;;;5.80;;
2408;SDS011;8463;48.094;7.970;2023-06-26T10:10:32;7.87;;;6.00;;
2408;SDS011;8463;48.094;7.970;2023-06-26T10:13:02;6.67;;;6.17;;
2408;SDS011;8463;48.094;7.970;2023-06-26T10:15:36;7.73;;;7.00;;
2408;SDS011;8463;48.094;7.970;2023-06-26T10:18:02;6.97;;;6.27;;
2408;SDS011;8463;48.094;7.970;2023-06-26T10:20:29;7.17;;;6.67;;
2408;SDS011;8463;48.094;7.970;2023-06-26T10:22:55;8.20;;;6.63;;
2408;SDS011;8463;48.094;7.970;2023-06-26T10:25:25;8.10;;;7.30;;
2408;SDS011;8463;48.094;7.970;2023-06-26T10:27:55;8.10;;;7.40;;
2408;SDS011;8463;48.094;7.970;2023-06-26T10:30:31;6.87;;;6.20;;
2408;SDS011;8463;48.094;7.970;2023-06-26T10:33:01;6.17;;;5.60;;
2408;SDS011;8463;48.094;7.970;2023-06-26T10:35:28;7.00;;;6.40;;
2408;SDS011;8463;48.094;7.970;2023-06-26T10:38:00;6.70;;;6.10;;
2408;SDS011;8463;48.094;7.970;2023-06-26T10:40:39;7.20;;;6.17;;
2408;SDS011;8463;48.094;7.970;2023-06-26T10:43:07;6.73;;;6.00;;
2408;SDS011;8463;48.094;7.970;2023-06-26T10:45:34;7.40;;;6.80;;
2408;SDS011;8463;48.094;7.970;2023-06-26T10:48:01;8.00;;;7.30;;
2408;SDS011;8463;48.094;7.970;2023-06-26T10:50:30;6.70;;;6.10;;
2408;SDS011;8463;48.094;7.970;2023-06-26T10:53:16;7.20;;;5.90;;
2408;SDS011;8463;48.094;7.970;2023-06-26T10:56:02;6.00;;;5.50;;
2408;SDS011;8463;48.094;7.970;2023-06-26T11:03:42;6.80;;;5.73;;
2408;SDS011;8463;48.094;7.970;2023-06-26T11:06:20;5.93;;;5.40;;
2408;SDS011;8463;48.094;7.970;2023-06-26T11:11:21;7.00;;;6.40;;
2408;SDS011;8463;48.094;7.970;2023-06-26T11:14:08;9.20;;;8.20;;
2408;SDS011;8463;48.094;7.970;2023-06-26T11:16:36;6.47;;;5.97;;
2408;SDS011;8463;48.094;7.970;2023-06-26T11:19:02;7.43;;;6.83;;
2408;SDS011;8463;48.094;7.970;2023-06-26T11:21:27;7.67;;;7.07;;
2408;SDS011;8463;48.094;7.970;2023-06-26T11:23:53;8.43;;;7.00;;
2408;SDS011;8463;48.094;7.970;2023-06-26T11:26:25;6.57;;;5.90;;
2408;SDS011;8463;48.094;7.970;2023-06-26T11:28:51;6.30;;;5.77;;
2408;SDS011;8463;48.094;7.970;2023-06-26T11:31:36;7.57;;;6.87;;
2408;SDS011;8463;48.094;7.970;2023-06-26T11:34:11;7.03;;;6.33;;
2408;SDS011;8463;48.094;7.970;2023-06-26T11:36:43;6.50;;;6.00;;
2408;SDS011;8463;48.094;7.970;2023-06-26T11:39:11;6.50;;;5.90;;
2408;SDS011;8463;48.094;7.970;2023-06-26T11:41:38;10.90;;;7.07;;
2408;SDS011;8463;48.094;7.970;2023-06-26T11:44:09;6.70;;;6.17;;
2408;SDS011;8463;48.094;7.970;2023-06-26T11:46:35;6.10;;;5.60;;
2408;SDS011;8463;48.094;7.970;2023-06-26T11:49:11;6.30;;;5.70;;
2408;SDS011;8463;48.094;7.970;2023-06-26T11:51:36;6.60;;;6.10;;
2408;SDS011;8463;48.094;7.970;2023-06-26T11:54:02;8.50;;;7.23;;
2408;SDS011;8463;48.094;7.970;2023-06-26T11:56:29;7.27;;;6.60;;
2408;SDS011;8463;48.094;7.970;2023-06-26T11:59:04;6.73;;;6.13;;
2408;SDS011;8463;48.094;7.970;2023-06-26T12:01:35;6.40;;;5.77;;
2408;SDS011;8463;48.094;7.970;2023-06-26T12:04:10;6.50;;;6.00;;
2408;SDS011;8463;48.094;7.970;2023-06-26T12:06:39;7.00;;;6.37;;
2408;SDS011;8463;48.094;7.970;2023-06-26T12:09:09;8.60;;;6.57;;
2408;SDS011;8463;48.094;7.970;2023-06-26T12:11:46;6.33;;;5.60;;
2408;SDS011;8463;48.094;7.970;2023-06-26T12:14:13;7.63;;;5.80;;
2408;SDS011;8463;48.094;7.970;2023-06-26T12:16:40;6.40;;;5.90;;
2408;SDS011;8463;48.094;7.970;2023-06-26T12:19:11;6.83;;;6.33;;
2408;SDS011;8463;48.094;7.970;2023-06-26T12:24:06;9.07;;;6.23;;
2408;SDS011;8463;48.094;7.970;2023-06-26T12:26:43;6.53;;;5.93;;
2408;SDS011;8463;48.094;7.970;2023-06-26T12:29:18;6.43;;;5.63;;
2408;SDS011;8463;48.094;7.970;2023-06-26T12:31:45;6.23;;;5.67;;
2408;SDS011;8463;48.094;7.970;2023-06-26T12:34:19;6.37;;;5.77;;
2408;SDS011;8463;48.094;7.970;2023-06-26T12:37:05;6.70;;;6.20;;
2408;SDS011;8463;48.094;7.970;2023-06-26T12:42:20;7.27;;;6.17;;
2408;SDS011;8463;48.094;7.970;2023-06-26T12:44:52;6.10;;;5.50;;
2408;SDS011;8463;48.094;7.970;2023-06-26T12:47:23;6.20;;;5.70;;
2408;SDS011;8463;48.094;7.970;2023-06-26T12:49:52;9.47;;;6.87;;
2408;SDS011;8463;48.094;7.970;2023-06-26T12:52:19;5.90;;;5.40;;
2408;SDS011;8463;48.094;7.970;2023-06-26T12:54:46;5.83;;;4.97;;
2408;SDS011;8463;48.094;7.970;2023-06-26T12:57:12;7.83;;;7.03;;
2408;SDS011;8463;48.094;7.970;2023-06-26T12:59:43;6.33;;;5.40;;
2408;SDS011;8463;48.094;7.970;2023-06-26T13:02:09;8.43;;;5.20;;
2408;SDS011;8463;48.094;7.970;2023-06-26T13:04:36;7.10;;;6.10;;
2408;SDS011;8463;48.094;7.970;2023-06-26T13:07:07;5.80;;;5.30;;
2408;SDS011;8463;48.094;7.970;2023-06-26T13:09:36;6.27;;;5.67;;
2408;SDS011;8463;48.094;7.970;2023-06-26T13:12:03;6.50;;;4.33;;
2408;SDS011;8463;48.094;7.970;2023-06-26T13:14:33;4.63;;;4.20;;
2408;SDS011;8463;48.094;7.970;2023-06-26T13:16:59;5.50;;;5.00;;
2408;SDS011;8463;48.094;7.970;2023-06-26T13:19:26;5.07;;;4.57;;
2408;SDS011;8463;48.094;7.970;2023-06-26T13:21:51;5.10;;;4.60;;
2408;SDS011;8463;48.094;7.970;2023-06-26T13:24:21;5.30;;;4.80;;
2408;SDS011;8463;48.094;7.970;2023-06-26T13:26:49;5.10;;;4.60;;
2408;SDS011;8463;48.094;7.970;2023-06-26T13:29:14;5.03;;;4.63;;
2408;SDS011;8463;48.094;7.970;2023-06-26T13:31:43;5.23;;;4.73;;
2408;SDS011;8463;48.094;7.970;2023-06-26T13:34:09;5.27;;;4.60;;
2408;SDS011;8463;48.094;7.970;2023-06-26T13:36:49;4.47;;;4.07;;
2408;SDS011;8463;48.094;7.970;2023-06-26T13:39:15;3.93;;;3.63;;
2408;SDS011;8463;48.094;7.970;2023-06-26T13:41:41;5.43;;;4.93;;
2408;SDS011;8463;48.094;7.970;2023-06-26T13:44:08;4.10;;;3.70;;
2408;SDS011;8463;48.094;7.970;2023-06-26T13:46:36;3.97;;;3.57;;
2408;SDS011;8463;48.094;7.970;2023-06-26T13:49:02;4.00;;;3.70;;
2408;SDS011;8463;48.094;7.970;2023-06-26T13:51:27;5.40;;;4.90;;
2408;SDS011;8463;48.094;7.970;2023-06-26T13:53:59;4.40;;;4.07;;
2408;SDS011;8463;48.094;7.970;2023-06-26T13:56:25;4.83;;;4.33;;
2408;SDS011;8463;48.094;7.970;2023-06-26T13:58:53;4.67;;;4.03;;
2408;SDS011;8463;48.094;7.970;2023-06-26T14:01:24;4.97;;;4.57;;
2408;SDS011;8463;48.094;7.970;2023-06-26T14:03:50;4.47;;;4.00;;
2408;SDS011;8463;48.094;7.970;2023-06-26T14:06:16;4.50;;;4.10;;
2408;SDS011;8463;48.094;7.970;2023-06-26T14:08:50;4.03;;;3.20;;
2408;SDS011;8463;48.094;7.970;2023-06-26T14:11:16;4.87;;;4.10;;
2408;SDS011;8463;48.094;7.970;2023-06-26T14:13:45;3.60;;;3.17;;
2408;SDS011;8463;48.094;7.970;2023-06-26T14:16:10;5.40;;;4.07;;
2408;SDS011;8463;48.094;7.970;2023-06-26T14:18:37;4.77;;;3.70;;
2408;SDS011;8463;48.094;7.970;2023-06-26T14:21:03;3.50;;;3.17;;
2408;SDS011;8463;48.094;7.970;2023-06-26T14:23:29;4.00;;;2.90;;
2408;SDS011;8463;48.094;7.970;2023-06-26T14:25:57;3.43;;;3.03;;
2408;SDS011;8463;48.094;7.970;2023-06-26T14:28:22;4.10;;;3.00;;
2408;SDS011;8463;48.094;7.970;2023-06-26T14:30:50;3.47;;;3.17;;
2408;SDS011;8463;48.094;7.970;2023-06-26T14:33:16;6.23;;;3.93;;
2408;SDS011;8463;48.094;7.970;2023-06-26T14:35:41;3.23;;;2.93;;
2408;SDS011;8463;48.094;7.970;2023-06-26T14:38:07;3.40;;;3.10;;
2408;SDS011;8463;48.094;7.970;2023-06-26T14:40:33;3.50;;;3.20;;
2408;SDS011;8463;48.094;7.970;2023-06-26T14:43:00;3.17;;;2.77;;
2408;SDS011;8463;48.094;7.970;2023-06-26T14:45:26;3.63;;;3.03;;
2408;SDS011;8463;48.094;7.970;2023-06-26T14:47:51;2.90;;;2.70;;
2408;SDS011;8463;48.094;7.970;2023-06-26T14:50:17;2.90;;;2.70;;
2408;SDS011;8463;48.094;7.970;2023-06-26T14:52:43;3.50;;;3.20;;
2408;SDS011;8463;48.094;7.970;2023-06-26T14:55:09;4.77;;;3.47;;
2408;SDS011;8463;48.094;7.970;2023-06-26T14:57:37;3.63;;;3.27;;
2408;SDS011;8463;48.094;7.970;2023-06-26T15:00:03;3.40;;;3.10;;
2408;SDS011;8463;48.094;7.970;2023-06-26T15:02:31;3.43;;;2.80;;
2408;SDS011;8463;48.094;7.970;2023-06-26T15:04:57;3.40;;;3.10;;
2408;SDS011;8463;48.094;7.970;2023-06-26T15:07:26;4.33;;;3.80;;
2408;SDS011;8463;48.094;7.970;2023-06-26T15:09:51;3.63;;;3.33;;
2408;SDS011;8463;48.094;7.970;2023-06-26T15:12:19;4.00;;;3.67;;
2408;SDS011;8463;48.094;7.970;2023-06-26T15:14:45;5.63;;;4.03;;
2408;SDS011;8463;48.094;7.970;2023-06-26T15:17:11;5.80;;;3.77;;
2408;SDS011;8463;48.094;7.970;2023-06-26T15:19:37;2.90;;;2.70;;
2408;SDS011;8463;48.094;7.970;2023-06-26T15:22:13;3.80;;;3.50;;
2408;SDS011;8463;48.094;7.970;2023-06-26T15:24:47;4.10;;;3.57;;
2408;SDS011;8463;48.094;7.970;2023-06-26T15:27:12;6.00;;;4.20;;
2408;SDS011;8463;48.094;7.970;2023-06-26T15:29:38;5.63;;;4.33;;
2408;SDS011;8463;48.094;7.970;2023-06-26T15:32:04;5.13;;;4.10;;
2408;SDS011;8463;48.094;7.970;2023-06-26T15:34:30;4.40;;;4.00;;
2408;SDS011;8463;48.094;7.970;2023-06-26T15:36:55;4.50;;;4.10;;
2408;SDS011;8463;48.094;7.970;2023-06-26T15:39:21;8.97;;;5.87;;